createdAt,value
2023-02-08T00:00:27.846Z,9.00
2023-02-08T00:02:38.538Z,8.40
2023-02-08T00:04:47.142Z,10.77
2023-02-08T00:06:56.057Z,13.23
2023-02-08T00:09:04.786Z,12.70
2023-02-08T00:11:13.861Z,10.60
2023-02-08T00:13:22.678Z,15.03
2023-02-08T00:15:31.776Z,10.57
2023-02-08T00:17:42.011Z,11.30
2023-02-08T00:19:51.141Z,14.97
2023-02-08T00:21:59.934Z,14.90
2023-02-08T00:24:08.648Z,9.73
2023-02-08T00:26:17.658Z,9.40
2023-02-08T00:28:26.949Z,15.63
2023-02-08T00:30:36.198Z,11.77
2023-02-08T00:32:46.685Z,10.60
2023-02-08T00:34:55.621Z,10.33
2023-02-08T00:37:04.609Z,10.13
2023-02-08T00:39:13.202Z,10.63
2023-02-08T00:41:22.181Z,11.63
2023-02-08T00:43:30.821Z,10.97
2023-02-08T00:45:40.080Z,12.60
2023-02-08T00:47:50.340Z,10.80
2023-02-08T00:49:59.327Z,12.80
2023-02-08T00:52:08.129Z,10.53
2023-02-08T00:54:17.470Z,10.00
2023-02-08T00:56:26.559Z,15.10
2023-02-08T00:58:35.926Z,11.17
2023-02-08T01:00:44.804Z,10.97
2023-02-08T01:02:54.899Z,16.23
2023-02-08T01:05:03.889Z,10.93
2023-02-08T01:07:12.717Z,11.20
2023-02-08T01:09:21.561Z,13.10
2023-02-08T01:11:30.756Z,5.97
2023-02-08T01:13:39.837Z,11.60
2023-02-08T01:15:48.941Z,12.17
2023-02-08T01:18:00.232Z,13.03
2023-02-08T01:20:09.523Z,13.60
2023-02-08T01:22:18.366Z,12.90
2023-02-08T01:24:27.556Z,12.10
2023-02-08T01:26:36.789Z,12.97
2023-02-08T01:28:45.652Z,11.70
2023-02-08T01:30:54.736Z,13.20
2023-02-08T01:33:05.650Z,15.03
2023-02-08T01:35:14.397Z,12.77
2023-02-08T01:37:23.243Z,19.47
2023-02-08T01:39:32.062Z,13.03
2023-02-08T01:41:43.818Z,13.03
2023-02-08T01:44:07.482Z,12.23
2023-02-08T01:46:16.331Z,11.03
2023-02-08T01:48:29.660Z,14.37
2023-02-08T01:50:49.300Z,16.63
2023-02-08T01:52:58.374Z,13.23
2023-02-08T01:55:08.816Z,13.20
2023-02-08T01:57:17.829Z,14.13
2023-02-08T01:59:28.713Z,20.10
2023-02-08T02:01:38.454Z,15.10
2023-02-08T02:03:49.892Z,14.03
2023-02-08T02:06:03.602Z,15.23
2023-02-08T02:08:13.137Z,12.47
2023-02-08T02:10:25.196Z,16.43
2023-02-08T02:12:34.240Z,13.80
2023-02-08T02:14:44.181Z,15.03
2023-02-08T02:16:52.950Z,15.67
2023-02-08T02:19:03.874Z,17.03
2023-02-08T02:21:28.057Z,17.13
2023-02-08T02:23:46.145Z,16.43
2023-02-08T02:26:06.448Z,17.03
2023-02-08T02:28:38.980Z,10.20
2023-02-08T02:31:08.722Z,23.40
2023-02-08T02:33:32.532Z,23.20
2023-02-08T02:35:47.966Z,17.90
2023-02-08T02:38:00.323Z,14.67
2023-02-08T02:40:12.293Z,14.43
2023-02-08T02:42:42.306Z,15.77
2023-02-08T02:44:55.965Z,17.43
2023-02-08T02:47:07.879Z,17.77
2023-02-08T02:49:19.709Z,18.23
2023-02-08T02:51:32.452Z,21.67
2023-02-08T02:53:44.625Z,20.93
2023-02-08T02:55:57.002Z,15.30
2023-02-08T02:58:06.283Z,16.13
2023-02-08T03:00:21.660Z,18.40
2023-02-08T03:02:30.869Z,18.60
2023-02-08T03:04:57.431Z,23.47
2023-02-08T03:07:11.152Z,19.17
2023-02-08T03:09:30.174Z,18.63
2023-02-08T03:11:39.338Z,21.60
2023-02-08T03:13:56.694Z,24.67
2023-02-08T03:16:16.401Z,13.93
2023-02-08T03:18:32.352Z,14.53
2023-02-08T03:20:43.389Z,20.73
2023-02-08T03:23:01.009Z,18.10
2023-02-08T03:25:11.811Z,13.57
2023-02-08T03:27:25.252Z,18.83
2023-02-08T03:29:41.670Z,25.80
2023-02-08T03:31:52.784Z,21.30
2023-02-08T03:34:05.414Z,19.10
2023-02-08T03:36:17.007Z,17.00
2023-02-08T03:38:29.777Z,22.50
2023-02-08T03:40:40.062Z,16.90
2023-02-08T03:42:49.478Z,17.53
2023-02-08T03:45:01.377Z,16.83
2023-02-08T03:47:12.391Z,27.53
2023-02-08T03:49:24.170Z,13.87
2023-02-08T03:51:34.890Z,18.87
2023-02-08T03:53:47.430Z,24.83
2023-02-08T03:56:00.679Z,20.37
2023-02-08T03:58:12.348Z,17.93
2023-02-08T04:00:21.855Z,18.57
2023-02-08T04:02:33.176Z,23.93
2023-02-08T04:04:44.120Z,21.37
2023-02-08T04:06:52.761Z,25.60
2023-02-08T04:09:03.404Z,16.53
2023-02-08T04:11:12.539Z,18.23
2023-02-08T04:13:21.235Z,20.50
2023-02-08T04:15:30.708Z,25.33
2023-02-08T04:17:39.487Z,23.73
2023-02-08T04:19:48.383Z,19.97
2023-02-08T04:21:57.358Z,21.10
2023-02-08T04:24:08.521Z,19.50
2023-02-08T04:26:17.793Z,24.97
2023-02-08T04:28:26.867Z,22.00
2023-02-08T04:30:35.533Z,20.87
2023-02-08T04:32:44.438Z,26.70
2023-02-08T04:34:53.555Z,28.07
2023-02-08T04:37:02.165Z,19.13
2023-02-08T04:39:13.336Z,22.73
2023-02-08T04:41:22.422Z,24.97
2023-02-08T04:43:31.465Z,17.30
2023-02-08T04:45:40.345Z,23.03
2023-02-08T04:47:49.181Z,27.77
2023-02-08T04:49:58.224Z,16.73
2023-02-08T04:52:07.430Z,14.60
2023-02-08T04:54:18.001Z,20.77
2023-02-08T04:56:26.810Z,19.53
2023-02-08T04:58:35.609Z,22.60
2023-02-08T05:00:44.589Z,29.27
2023-02-08T05:02:55.670Z,17.70
2023-02-08T05:05:05.012Z,17.70
2023-02-08T05:07:14.137Z,20.70
2023-02-08T05:09:25.008Z,26.43
2023-02-08T05:11:33.919Z,18.30
2023-02-08T05:13:42.944Z,19.87
2023-02-08T05:15:52.177Z,21.40
2023-02-08T05:18:00.774Z,21.47
2023-02-08T05:20:10.538Z,20.53
2023-02-08T05:22:19.541Z,18.13
2023-02-08T05:24:30.072Z,16.43
2023-02-08T05:26:39.072Z,28.50
2023-02-08T05:28:47.645Z,17.57
2023-02-08T05:30:57.141Z,27.17
2023-02-08T05:33:05.985Z,16.53
2023-02-08T05:35:14.432Z,21.23
2023-02-08T05:37:23.250Z,20.30
2023-02-08T05:39:33.586Z,23.30
2023-02-08T05:41:42.052Z,24.60
2023-02-08T05:43:51.175Z,20.37
2023-02-08T05:46:00.640Z,21.10
2023-02-08T05:48:09.594Z,17.27
2023-02-08T05:50:18.307Z,19.97
2023-02-08T05:52:27.437Z,17.93
2023-02-08T05:54:37.529Z,20.07
2023-02-08T05:56:46.740Z,19.33
2023-02-08T05:58:55.600Z,18.27
2023-02-08T06:01:09.357Z,22.77
2023-02-08T06:03:18.622Z,18.07
2023-02-08T06:05:27.856Z,19.67
2023-02-08T06:07:37.145Z,17.63
2023-02-08T06:09:48.572Z,20.37
2023-02-08T06:11:57.370Z,22.70
2023-02-08T06:14:06.263Z,18.60
2023-02-08T06:16:17.183Z,19.80
2023-02-08T06:18:27.254Z,20.17
2023-02-08T06:20:35.951Z,22.47
2023-02-08T06:22:44.699Z,16.90
2023-02-08T06:24:55.250Z,18.23
2023-02-08T06:27:04.627Z,17.97
2023-02-08T06:29:13.688Z,21.10
2023-02-08T06:31:22.665Z,18.97
2023-02-08T06:33:31.686Z,20.97
2023-02-08T06:35:40.337Z,18.40
2023-02-08T06:37:49.170Z,22.23
2023-02-08T06:40:02.131Z,18.87
2023-02-08T06:42:11.356Z,15.63
2023-02-08T06:44:20.524Z,17.70
2023-02-08T06:46:29.624Z,16.93
2023-02-08T06:48:38.520Z,18.10
2023-02-08T06:50:47.741Z,22.43
2023-02-08T06:52:56.758Z,15.87
2023-02-08T06:55:07.606Z,18.20
2023-02-08T06:57:16.620Z,13.87
2023-02-08T06:59:25.447Z,15.73
2023-02-08T07:01:34.676Z,19.03
2023-02-08T07:03:44.097Z,14.80
2023-02-08T07:06:04.569Z,19.27
2023-02-08T07:08:15.813Z,15.50
2023-02-08T07:10:26.359Z,19.90
2023-02-08T07:12:35.254Z,17.57
2023-02-08T07:14:45.057Z,17.50
2023-02-08T07:16:56.208Z,15.43
2023-02-08T07:19:05.308Z,16.27
2023-02-08T07:21:14.402Z,20.33
2023-02-08T07:23:23.382Z,17.97
2023-02-08T07:25:33.625Z,17.23
2023-02-08T07:27:42.193Z,19.60
2023-02-08T07:29:51.546Z,20.30
2023-02-08T07:32:00.749Z,16.37
2023-02-08T07:34:09.296Z,13.07
2023-02-08T07:36:18.372Z,15.63
2023-02-08T07:38:27.017Z,15.00
2023-02-08T07:40:37.252Z,13.17
2023-02-08T07:42:45.925Z,17.90
2023-02-08T07:44:55.269Z,17.53
2023-02-08T07:47:04.289Z,20.60
2023-02-08T07:49:13.028Z,20.90
2023-02-08T07:51:21.717Z,15.30
2023-02-08T07:53:30.803Z,20.47
2023-02-08T07:55:41.876Z,22.57
2023-02-08T07:57:51.502Z,15.57
2023-02-08T08:00:00.437Z,18.93
2023-02-08T08:02:12.193Z,11.73
2023-02-08T08:04:22.149Z,21.77
2023-02-08T08:06:30.782Z,14.97
2023-02-08T08:08:40.176Z,13.53
2023-02-08T08:10:51.074Z,19.27
2023-02-08T08:12:59.953Z,19.40
2023-02-08T08:15:09.187Z,13.47
2023-02-08T08:17:18.883Z,13.93
2023-02-08T08:19:28.332Z,15.60
2023-02-08T08:21:37.757Z,16.33
2023-02-08T08:23:46.885Z,13.17
2023-02-08T08:25:57.533Z,14.63
2023-02-08T08:28:07.409Z,16.33
2023-02-08T08:30:18.224Z,14.50
2023-02-08T08:32:27.264Z,12.80
2023-02-08T08:34:36.114Z,16.03
2023-02-08T08:36:44.818Z,15.77
2023-02-08T08:38:53.906Z,12.40
2023-02-08T08:41:08.600Z,13.40
2023-02-08T08:43:17.449Z,14.20
2023-02-08T08:45:26.260Z,16.20
2023-02-08T08:47:35.043Z,14.77
2023-02-08T08:49:44.380Z,8.57
2023-02-08T08:51:53.340Z,20.33
2023-02-08T08:54:02.098Z,11.60
2023-02-08T08:56:12.898Z,12.43
2023-02-08T08:58:21.685Z,10.23
2023-02-08T09:00:30.711Z,8.90
2023-02-08T09:02:39.436Z,15.47
2023-02-08T09:04:48.501Z,12.33
2023-02-08T09:06:57.121Z,17.33
2023-02-08T09:09:06.500Z,12.77
2023-02-08T09:11:17.762Z,12.17
2023-02-08T09:13:26.833Z,11.53
2023-02-08T09:15:35.833Z,8.63
2023-02-08T09:17:44.870Z,8.47
2023-02-08T09:19:53.802Z,10.43
2023-02-08T09:22:03.778Z,8.53
2023-02-08T09:24:12.805Z,14.10
2023-02-08T09:26:23.491Z,10.30
2023-02-08T09:28:32.605Z,10.37
2023-02-08T09:30:41.926Z,10.30
2023-02-08T09:32:50.916Z,12.33
2023-02-08T09:34:59.999Z,8.07
2023-02-08T09:37:09.151Z,11.60
2023-02-08T09:39:19.551Z,10.17
2023-02-08T09:41:36.594Z,9.50
2023-02-08T09:43:51.079Z,7.50
2023-02-08T09:46:02.516Z,13.80
2023-02-08T09:48:17.434Z,10.80
2023-02-08T09:50:30.106Z,10.53
2023-02-08T09:52:41.925Z,10.17
2023-02-08T09:54:52.539Z,8.47
2023-02-08T09:57:04.589Z,12.30
2023-02-08T09:59:15.723Z,9.53
2023-02-08T10:01:25.968Z,9.93
2023-02-08T10:03:37.249Z,11.03
2023-02-08T10:05:46.381Z,8.93
2023-02-08T10:07:56.404Z,7.37
2023-02-08T10:10:07.239Z,13.17
2023-02-08T10:12:22.219Z,6.80
2023-02-08T10:14:36.241Z,13.73
2023-02-08T10:17:01.146Z,9.23
2023-02-08T10:19:14.096Z,10.93
2023-02-08T10:21:38.422Z,9.40
2023-02-08T10:23:57.445Z,10.87
2023-02-08T10:26:15.842Z,10.67
2023-02-08T10:28:44.868Z,11.27
2023-02-08T10:30:58.589Z,10.63
2023-02-08T10:33:09.584Z,11.33
2023-02-08T10:35:24.528Z,11.87
2023-02-08T10:37:35.629Z,10.03
2023-02-08T10:39:45.108Z,10.37
2023-02-08T10:41:53.942Z,10.87
2023-02-08T10:44:07.748Z,10.23
2023-02-08T10:46:19.470Z,10.60
2023-02-08T10:48:37.437Z,9.60
2023-02-08T10:50:48.537Z,10.50
2023-02-08T10:52:57.672Z,5.80
2023-02-08T10:55:13.893Z,10.70
2023-02-08T10:57:24.961Z,7.77
2023-02-08T10:59:36.253Z,9.20
2023-02-08T11:01:46.172Z,9.90
2023-02-08T11:04:05.409Z,8.77
2023-02-08T11:06:27.263Z,8.37
2023-02-08T11:08:56.009Z,4.10
2023-02-08T11:11:05.522Z,5.00
2023-02-08T11:13:19.561Z,5.83
2023-02-08T11:15:31.986Z,7.43
2023-02-08T11:17:41.057Z,6.20
2023-02-08T11:19:52.679Z,3.80
2023-02-08T11:22:02.024Z,7.10
2023-02-08T11:24:27.429Z,7.33
2023-02-08T11:26:37.077Z,7.60
2023-02-08T11:28:46.625Z,5.70
2023-02-08T11:31:19.568Z,7.30
2023-02-08T11:33:29.355Z,6.77
2023-02-08T11:35:38.040Z,6.73
2023-02-08T11:37:49.104Z,5.23
2023-02-08T11:39:58.887Z,9.43
2023-02-08T11:42:08.502Z,12.33
2023-02-08T11:44:19.223Z,9.50
2023-02-08T11:46:30.856Z,9.33
2023-02-08T11:48:45.367Z,8.43
2023-02-08T11:50:58.411Z,6.30
2023-02-08T11:53:08.256Z,6.17
2023-02-08T11:55:25.608Z,6.80
2023-02-08T11:57:37.237Z,4.53
2023-02-08T11:59:46.451Z,6.20
2023-02-08T12:01:57.391Z,5.83
2023-02-08T12:04:07.462Z,5.03
2023-02-08T12:06:23.131Z,6.90
2023-02-08T12:08:40.110Z,8.23
2023-02-08T12:11:03.520Z,8.30
2023-02-08T12:13:32.690Z,10.03
2023-02-08T12:15:58.704Z,6.43
2023-02-08T12:18:25.249Z,5.73
2023-02-08T12:20:44.113Z,10.70
2023-02-08T12:23:02.236Z,9.83
2023-02-08T12:25:23.268Z,5.23
2023-02-08T12:27:41.121Z,7.97
2023-02-08T12:29:52.715Z,3.70
2023-02-08T12:32:09.188Z,4.40
2023-02-08T12:34:25.210Z,8.03
2023-02-08T12:36:48.858Z,6.67
2023-02-08T12:39:26.721Z,6.60
2023-02-08T12:41:40.649Z,7.03
2023-02-08T12:43:52.775Z,7.27
2023-02-08T12:46:13.608Z,5.97
2023-02-08T12:48:33.037Z,5.10
2023-02-08T12:50:48.315Z,6.70
2023-02-08T12:52:59.246Z,8.10
2023-02-08T12:55:15.190Z,5.93
2023-02-08T12:57:25.445Z,11.80
2023-02-08T12:59:36.440Z,7.83
2023-02-08T13:01:46.622Z,4.83
2023-02-08T13:03:58.304Z,9.83
2023-02-08T13:06:10.111Z,6.10
2023-02-08T13:08:23.237Z,8.27
2023-02-08T13:10:35.198Z,7.63
2023-02-08T13:12:46.496Z,7.33
2023-02-08T13:14:57.594Z,5.63
2023-02-08T13:17:12.333Z,6.63
2023-02-08T13:19:26.320Z,5.97
2023-02-08T13:21:42.023Z,6.80
2023-02-08T13:23:53.262Z,4.23
2023-02-08T13:26:04.224Z,5.70
2023-02-08T13:28:18.425Z,7.87
2023-02-08T13:30:28.005Z,8.70
2023-02-08T13:32:38.592Z,3.23
2023-02-08T13:34:48.555Z,8.67
2023-02-08T13:37:00.463Z,7.70
2023-02-08T13:39:11.497Z,6.87
2023-02-08T13:41:22.021Z,7.53
2023-02-08T13:43:37.322Z,6.57
2023-02-08T13:45:53.092Z,4.17
2023-02-08T13:48:03.445Z,6.37
2023-02-08T13:50:29.124Z,3.77
2023-02-08T13:52:55.448Z,9.00
2023-02-08T13:55:19.180Z,5.50
2023-02-08T13:57:46.888Z,7.30
2023-02-08T14:00:10.779Z,8.30
2023-02-08T14:02:32.058Z,3.73
2023-02-08T14:04:41.735Z,5.43
2023-02-08T14:06:52.177Z,5.50
2023-02-08T14:09:08.172Z,3.83
2023-02-08T14:11:19.531Z,7.40
2023-02-08T14:13:31.420Z,6.00
2023-02-08T14:15:41.241Z,6.23
2023-02-08T14:17:51.478Z,6.23
2023-02-08T14:20:02.204Z,3.70
2023-02-08T14:22:18.315Z,6.67
2023-02-08T14:24:34.669Z,3.20
2023-02-08T14:26:43.613Z,4.80
2023-02-08T14:28:56.034Z,3.60
2023-02-08T14:31:07.754Z,4.37
2023-02-08T14:33:21.817Z,4.73
2023-02-08T14:35:31.212Z,2.40
2023-02-08T14:37:40.024Z,3.63
2023-02-08T14:39:53.068Z,3.13
2023-02-08T14:42:05.760Z,4.70
2023-02-08T14:44:32.794Z,3.43
2023-02-08T14:46:45.828Z,3.27
2023-02-08T14:48:55.005Z,4.13
2023-02-08T14:51:09.181Z,4.53
2023-02-08T14:53:20.771Z,5.27
2023-02-08T14:55:32.849Z,4.37
2023-02-08T14:57:43.023Z,2.67
2023-02-08T14:59:53.490Z,4.20
2023-02-08T15:02:03.676Z,4.77
2023-02-08T15:04:12.618Z,4.27
2023-02-08T15:06:49.932Z,4.57
2023-02-08T15:08:59.309Z,2.87
2023-02-08T15:11:20.193Z,3.73
2023-02-08T15:13:28.987Z,3.90
2023-02-08T15:15:39.820Z,3.40
2023-02-08T15:17:49.818Z,4.33
2023-02-08T15:19:59.200Z,5.50
2023-02-08T15:22:21.779Z,4.17
2023-02-08T15:24:30.416Z,2.57
2023-02-08T15:26:46.944Z,4.47
2023-02-08T15:28:56.209Z,4.13
2023-02-08T15:31:06.787Z,4.77
2023-02-08T15:33:18.043Z,5.67
2023-02-08T15:35:27.808Z,5.07
2023-02-08T15:37:37.554Z,6.47
2023-02-08T15:39:46.309Z,4.13
2023-02-08T15:41:58.742Z,5.73
2023-02-08T15:44:16.837Z,4.77
2023-02-08T15:46:26.905Z,6.57
2023-02-08T15:48:36.766Z,7.17
2023-02-08T15:50:45.751Z,4.93
2023-02-08T15:52:58.036Z,5.77
2023-02-08T15:55:09.153Z,6.13
2023-02-08T15:57:32.393Z,4.33
2023-02-08T15:59:43.106Z,3.13
2023-02-08T16:01:52.385Z,4.50
2023-02-08T16:04:02.591Z,2.83
2023-02-08T16:06:11.870Z,3.70
2023-02-08T16:08:23.437Z,5.20
2023-02-08T16:10:36.846Z,6.67
2023-02-08T16:12:52.264Z,6.90
2023-02-08T16:15:01.299Z,6.13
2023-02-08T16:17:25.035Z,6.57
2023-02-08T16:19:34.765Z,7.23
2023-02-08T16:21:43.813Z,6.90
2023-02-08T16:23:53.596Z,5.20
2023-02-08T16:26:13.584Z,9.40
2023-02-08T16:28:27.520Z,8.13
2023-02-08T16:30:37.925Z,9.40
2023-02-08T16:32:47.026Z,6.90
2023-02-08T16:34:55.911Z,5.40
2023-02-08T16:37:05.541Z,7.93
2023-02-08T16:39:39.570Z,7.70
2023-02-08T16:42:14.984Z,7.20
2023-02-08T16:44:27.488Z,8.77
2023-02-08T16:46:46.480Z,6.80
2023-02-08T16:48:56.261Z,8.30
2023-02-08T16:51:06.150Z,8.07
2023-02-08T16:53:15.312Z,5.87
2023-02-08T16:55:25.633Z,10.47
2023-02-08T16:57:42.294Z,8.57
2023-02-08T16:59:57.095Z,8.57
2023-02-08T17:02:05.894Z,10.17
2023-02-08T17:04:15.044Z,7.17
2023-02-08T17:06:27.391Z,10.67
2023-02-08T17:08:37.652Z,10.60
2023-02-08T17:10:48.635Z,11.33
2023-02-08T17:13:13.307Z,7.97
2023-02-08T17:15:28.995Z,9.03
2023-02-08T17:17:37.883Z,4.10
2023-02-08T17:19:47.145Z,6.67
2023-02-08T17:21:56.580Z,4.83
2023-02-08T17:24:05.832Z,9.90
2023-02-08T17:26:16.365Z,7.43
2023-02-08T17:28:25.226Z,5.07
2023-02-08T17:30:38.151Z,4.63
2023-02-08T17:32:47.146Z,7.73
2023-02-08T17:34:56.632Z,7.20
2023-02-08T17:37:05.604Z,5.03
2023-02-08T17:39:15.588Z,5.10
2023-02-08T17:41:24.684Z,6.47
2023-02-08T17:43:33.447Z,6.23
2023-02-08T17:45:45.497Z,6.53
2023-02-08T17:47:55.396Z,7.27
2023-02-08T17:50:04.353Z,8.17
2023-02-08T17:52:13.374Z,9.37
2023-02-08T17:54:22.184Z,5.53
2023-02-08T17:56:35.770Z,5.43
2023-02-08T17:58:45.419Z,5.63
2023-02-08T18:00:56.610Z,6.17
2023-02-08T18:03:05.465Z,6.60
2023-02-08T18:05:14.420Z,5.40
2023-02-08T18:07:23.598Z,6.00
2023-02-08T18:09:33.573Z,5.80
2023-02-08T18:11:42.856Z,5.97
2023-02-08T18:13:52.831Z,6.50
2023-02-08T18:16:08.463Z,7.20
2023-02-08T18:18:18.344Z,12.33
2023-02-08T18:20:26.974Z,8.40
2023-02-08T18:22:36.814Z,7.87
2023-02-08T18:24:45.391Z,9.27
2023-02-08T18:26:54.097Z,9.27
2023-02-08T18:29:03.701Z,9.00
2023-02-08T18:31:15.917Z,9.27
2023-02-08T18:33:24.754Z,9.93
2023-02-08T18:35:33.906Z,8.23
2023-02-08T18:37:43.139Z,7.83
2023-02-08T18:39:52.430Z,6.77
2023-02-08T18:42:01.094Z,5.63
2023-02-08T18:44:10.238Z,8.37
2023-02-08T18:46:22.080Z,8.13
2023-02-08T18:48:31.572Z,6.17
2023-02-08T18:50:40.958Z,6.13
2023-02-08T18:52:49.584Z,7.13
2023-02-08T18:54:58.097Z,8.33
2023-02-08T18:57:09.781Z,7.33
2023-02-08T18:59:18.782Z,6.50
2023-02-08T19:01:29.353Z,6.40
2023-02-08T19:03:38.100Z,5.17
2023-02-08T19:05:47.597Z,4.90
2023-02-08T19:07:56.603Z,5.30
2023-02-08T19:10:06.010Z,4.63
2023-02-08T19:12:16.210Z,4.70
2023-02-08T19:14:25.019Z,4.67
2023-02-08T19:16:36.696Z,4.73
2023-02-08T19:18:46.013Z,4.20
2023-02-08T19:20:55.384Z,6.30
2023-02-08T19:23:04.436Z,4.37
2023-02-08T19:25:13.169Z,5.00
2023-02-08T19:27:21.934Z,6.33
2023-02-08T19:29:32.829Z,6.23
2023-02-08T19:31:44.095Z,6.33
2023-02-08T19:33:57.319Z,4.97
2023-02-08T19:36:10.153Z,6.83
2023-02-08T19:38:19.327Z,3.67
2023-02-08T19:40:28.384Z,6.03
2023-02-08T19:42:37.514Z,4.17
2023-02-08T19:44:46.901Z,5.90
2023-02-08T19:46:57.554Z,5.17
2023-02-08T19:49:06.700Z,4.77
2023-02-08T19:51:16.428Z,5.40
2023-02-08T19:53:27.293Z,6.40
2023-02-08T19:55:36.043Z,4.03
2023-02-08T19:57:44.618Z,5.97
2023-02-08T19:59:53.503Z,4.80
2023-02-08T20:02:04.212Z,4.80
2023-02-08T20:04:13.860Z,5.37
2023-02-08T20:06:24.118Z,5.17
2023-02-08T20:08:33.574Z,5.03
2023-02-08T20:10:42.641Z,4.77
2023-02-08T20:12:51.167Z,5.00
2023-02-08T20:15:00.447Z,5.40
2023-02-08T20:17:11.034Z,4.80
2023-02-08T20:19:19.988Z,5.77
2023-02-08T20:21:29.273Z,6.37
2023-02-08T20:23:38.855Z,5.03
2023-02-08T20:25:48.162Z,5.23
2023-02-08T20:27:57.022Z,5.77
2023-02-08T20:30:06.402Z,5.80
2023-02-08T20:32:18.896Z,6.80
2023-02-08T20:34:28.259Z,5.40
2023-02-08T20:36:41.008Z,5.87
2023-02-08T20:38:49.819Z,6.10
2023-02-08T20:41:03.994Z,5.27
2023-02-08T20:43:12.836Z,4.47
2023-02-08T20:45:21.596Z,5.70
2023-02-08T20:47:33.828Z,6.37
2023-02-08T20:49:45.194Z,7.27
2023-02-08T20:51:55.123Z,10.10
2023-02-08T20:54:04.839Z,11.07
2023-02-08T20:56:15.569Z,7.73
2023-02-08T20:58:24.858Z,8.40
2023-02-08T21:00:41.887Z,8.40
2023-02-08T21:02:53.258Z,6.93
2023-02-08T21:05:02.179Z,6.60
2023-02-08T21:07:11.437Z,6.90
2023-02-08T21:09:20.832Z,5.03
2023-02-08T21:11:30.578Z,5.20
2023-02-08T21:13:39.960Z,5.27
2023-02-08T21:15:49.042Z,3.80
2023-02-08T21:17:59.213Z,5.43
2023-02-08T21:20:09.058Z,3.70
2023-02-08T21:22:19.051Z,5.73
2023-02-08T21:24:28.618Z,5.03
2023-02-08T21:26:37.564Z,5.33
2023-02-08T21:28:46.997Z,5.40
2023-02-08T21:30:59.020Z,6.20
2023-02-08T21:33:10.351Z,7.73
2023-02-08T21:35:19.745Z,5.07
2023-02-08T21:37:28.821Z,6.00
2023-02-08T21:39:37.766Z,6.90
2023-02-08T21:41:46.656Z,6.10
2023-02-08T21:43:56.260Z,5.37
2023-02-08T21:46:06.174Z,5.87
2023-02-08T21:48:16.610Z,5.37
2023-02-08T21:50:43.425Z,6.30
2023-02-08T21:53:10.278Z,5.70
2023-02-08T21:55:19.441Z,7.70
2023-02-08T21:57:30.263Z,6.70
2023-02-08T21:59:39.109Z,9.83
2023-02-08T22:01:47.812Z,9.93
2023-02-08T22:03:58.176Z,8.37
2023-02-08T22:06:24.576Z,4.97
2023-02-08T22:08:52.384Z,6.90
2023-02-08T22:11:04.800Z,6.63
2023-02-08T22:13:14.536Z,7.70
2023-02-08T22:15:24.257Z,10.00
2023-02-08T22:17:32.990Z,7.90
2023-02-08T22:19:43.722Z,8.47
2023-02-08T22:21:58.601Z,10.70
2023-02-08T22:24:08.233Z,10.47
2023-02-08T22:26:16.952Z,7.23
2023-02-08T22:28:25.968Z,13.33
2023-02-08T22:30:35.022Z,9.87
2023-02-08T22:32:44.180Z,10.37
2023-02-08T22:34:54.980Z,9.00
2023-02-08T22:37:04.457Z,8.10
2023-02-08T22:39:13.633Z,11.33
2023-02-08T22:41:23.070Z,8.03
2023-02-08T22:43:31.984Z,8.57
2023-02-08T22:45:42.408Z,12.57
2023-02-08T22:47:51.267Z,12.27
2023-02-08T22:50:01.808Z,7.37
2023-02-08T22:52:46.492Z,9.87
2023-02-08T22:54:56.305Z,7.20
2023-02-08T22:57:06.101Z,9.10
2023-02-08T22:59:15.167Z,11.23
2023-02-08T23:01:24.487Z,9.90
2023-02-08T23:03:34.086Z,10.87
2023-02-08T23:05:45.034Z,10.00
2023-02-08T23:07:54.230Z,13.93
2023-02-08T23:10:04.382Z,11.13
2023-02-08T23:12:13.031Z,9.13
2023-02-08T23:14:22.401Z,10.50
2023-02-08T23:16:31.714Z,10.60
2023-02-08T23:18:41.061Z,10.40
2023-02-08T23:20:51.628Z,9.13
2023-02-08T23:23:01.087Z,8.50
2023-02-08T23:25:10.286Z,8.37
2023-02-08T23:27:18.924Z,9.57
2023-02-08T23:29:28.044Z,11.93
2023-02-08T23:31:37.321Z,10.10
2023-02-08T23:33:46.586Z,8.57
2023-02-08T23:35:57.128Z,5.63
2023-02-08T23:38:06.134Z,9.43
2023-02-08T23:40:15.458Z,6.73
2023-02-08T23:42:27.394Z,8.90
2023-02-08T23:44:36.537Z,10.77
2023-02-08T23:46:45.519Z,7.57
2023-02-08T23:48:54.302Z,10.07
2023-02-08T23:51:06.385Z,8.07
2023-02-08T23:53:15.606Z,7.37
2023-02-08T23:55:24.688Z,8.80
2023-02-08T23:57:34.702Z,8.07
2023-02-08T23:59:43.619Z,8.60
